CYHD

Dryden Regional Airport

Airport
ICAO code
CYHD
IATA Code
YHD
Summary
ICAO Region
NAM
ICAO Territory
Location

Dryden, Ontario

Serving
Dryden
Elevation
1354 ft
Coordinates
49° 49' 53" N , 92° 44' 37" W
KCC
Airport CFIT
Altimeter Temperature Error Correction
Airport GND
Aircraft Ground De/Anti Icing
Metar
Observation
CYHD 280400Z AUTO 11007KT 9SM OVC032 M03/M08 A2975 RMK SLP101
Station
Dryden Airport
Date/Time
2022-11-28 04:00:00
Wind direction
110°
Wind speed
07 kts
Lowest cloud amount
overcast
Temperature
-3°C
Dew point
-8°C
Humidity
68%
Weather condition
n/a

Dryden Regional Airport is located 4.3 nm (8.0 km; 4.9 mi) northeast of Dryden, Ontario, Canada. 

Runways

Designator Length Width Surface Rops
5/23 610 23 SAN No/No
11/29 1829 46 ASP No/No

Airport map

Aerial View

Airport accidents

SKYbrary Partners:

Safety knowledge contributed by: